Freelance — WSP9410 — position and weather

sailwx.info

Track history (hours):
 
Tides and Currents Weather Stations Pressure Air Temp Water Temp Dewpoint Dewpoint Depression Visibility Wind Speed Wind Dir Waves Ship Positions

Freelance

Owner: BROCKMAN, DONALD C, BALBOA, CA. More information available from US FCC via Universal Licensing System and Coast Guard Vessel Documentation Center.

Last reported at 2018-Apr-24 20:41 UTC. Time now 2018-Apr-24 21:11 UTC.
Position N 33°19' W 118°18'.

Length 25 m.

Type: Passenger vessel. MMSI: 366977380.

Date/timePositionNaut miles runAvg speedWind from/ knotsBaromVisibWave heightAir tempDewpointWater temp
2018-Apr-24 20:41N 33°19' W 118°18'0 2.4
2018-Apr-24 20:28N 33°19' W 118°18'1 1.3
2018-Apr-24 19:59N 33°19' W 118°18'1 0.9
2018-Apr-24 19:06N 33°20' W 118°19'210.9
2018-Apr-24 18:52N 33°22' W 118°21'27 5.6
2018-Apr-24 14:04N 33°35' W 117°53'0 2.0
2018-Apr-24 13:56N 33°36' W 117°53'1 0.1
2018-Apr-24 01:52N 33°36' W 117°54'0 0.1
2018-Apr-24 01:13N 33°36' W 117°54'1 5.4
2018-Apr-24 00:57N 33°35' W 117°53'510.8
2018-Apr-24 00:30N 33°32' W 117°58'710.6
2018-Apr-23 23:51N 33°29' W 118°05'12 0.5
2018-Apr-23 00:49N 33°35' W 117°53'411.1
2018-Apr-23 00:30N 33°34' W 117°57'510.8
2018-Apr-23 00:00N 33°33' W 118°03'610.9
2018-Apr-22 23:30N 33°31' W 118°10'910.5
2018-Apr-22 22:39N 33°27' W 118°19'210.4
2018-Apr-22 22:29N 33°27' W 118°21'3 6.5
2018-Apr-22 22:01N 33°25' W 118°25'0 0.1
2018-Apr-22 21:31N 33°25' W 118°24'3 4.6
2018-Apr-22 20:58N 33°24' W 118°22'2 2.3
2018-Apr-22 20:07N 33°22' W 118°21'4 3.7
2018-Apr-22 19:08N 33°19' W 118°18'0 0.5
2018-Apr-22 19:00N 33°20' W 118°18'2 3.7
2018-Apr-22 18:22N 33°17' W 118°18'0 0.2
2018-Apr-22 18:00N 33°17' W 118°18'0 0.0
2018-Apr-22 17:30N 33°17' W 118°18'0 0.1
2018-Apr-22 16:49N 33°17' W 118°18'2 6.5
2018-Apr-22 16:30N 33°19' W 118°17'510.2
2018-Apr-22 16:00N 33°22' W 118°12'610.7
2018-Apr-22 15:26N 33°26' W 118°07'910.5
2018-Apr-22 14:36N 33°31' W 117°58'210.8
2018-Apr-22 14:28N 33°32' W 117°57'510.1
2018-Apr-22 14:00N 33°35' W 117°53'1 0.2
2018-Apr-22 06:43N 33°36' W 117°54'1 5.9
2018-Apr-22 06:30N 33°35' W 117°53'0 0.0
2018-Apr-22 02:19N 33°35' W 117°53'1 3.7
2018-Apr-22 01:57N 33°36' W 117°54'0 0.1
2018-Apr-22 01:11N 33°36' W 117°54'1 5.4
2018-Apr-22 00:55N 33°35' W 117°53'410.5
2018-Apr-22 00:30N 33°32' W 117°57'510.7
2018-Apr-22 00:00N 33°29' W 118°02'510.6
2018-Apr-21 23:30N 33°26' W 118°07'710.3
2018-Apr-21 22:52N 33°22' W 118°13'5 9.0
2018-Apr-21 22:19N 33°19' W 118°18'5 1.1
2018-Apr-21 17:59N 33°18' W 118°24'0 0.2
2018-Apr-21 17:30N 33°18' W 118°24'0 0.4
2018-Apr-21 17:00N 33°18' W 118°24'30 9.9
2018-Apr-21 14:01N 33°34' W 117°54'110.8
2018-Apr-21 13:57N 33°34' W 117°54'4 0.4
2018-Apr-21 04:07N 33°37' W 117°58'0 0.1
2018-Apr-21 02:42N 33°37' W 117°58'2 9.4
2018-Apr-21 02:30N 33°36' W 117°56'2 3.7
2018-Apr-21 01:59N 33°36' W 117°54'0 0.1
2018-Apr-21 01:30N 33°36' W 117°54'0 0.0
2018-Apr-21 00:58N 33°36' W 117°54'1 2.5
2018-Apr-21 00:24N 33°35' W 117°53'411.2
2018-Apr-21 00:00N 33°33' W 117°58'611.1
2018-Apr-20 23:29N 33°31' W 118°04'10 0.2
2018-Apr-19 01:04N 33°35' W 117°53'111.1
2018-Apr-19 01:00N 33°35' W 117°54'510.8
2018-Apr-19 00:30N 33°33' W 117°60'1610.6
2018-Apr-18 23:00N 33°26' W 118°17'5 1.7
2018-Apr-18 19:50N 33°21' W 118°20'2 6.2
2018-Apr-18 19:30N 33°20' W 118°18'26 1.2
2018-Apr-17 22:13N 33°36' W 117°54'1 4.9
2018-Apr-17 21:57N 33°35' W 117°53'511.1
2018-Apr-17 21:28N 33°35' W 117°59'810.6
2018-Apr-17 20:44N 33°34' W 118°08'0 0.1
2018-Apr-17 20:30N 33°34' W 118°08'0 0.3
2018-Apr-17 19:57N 33°34' W 118°08'0 0.6
2018-Apr-17 19:30N 33°34' W 118°08'0 0.2
2018-Apr-17 18:55N 33°34' W 118°08'3 1.2
2018-Apr-17 16:47N 33°35' W 118°05'2 0.1
2018-Apr-16 19:40N 33°35' W 118°08'1 0.5
2018-Apr-16 18:01N 33°34' W 118°09'0 0.0
2018-Apr-16 18:00N 33°34' W 118°09'0 0.0
2018-Apr-16 17:00N 33°35' W 118°09'0 0.0
2018-Apr-16 16:27N 33°34' W 118°09'0 0.0
2018-Apr-16 15:41N 33°34' W 118°09'0 0.1
2018-Apr-16 15:17N 33°35' W 118°09'3 9.0
2018-Apr-16 14:59N 33°35' W 118°05'10 0.7
2018-Apr-16 00:48N 33°36' W 117°53'3 9.6
2018-Apr-16 00:30N 33°34' W 117°56'611.0
2018-Apr-16 00:00N 33°32' W 118°02'510.3
2018-Apr-15 23:30N 33°29' W 118°07'610.3
2018-Apr-15 22:57N 33°27' W 118°13'710.4
2018-Apr-15 22:16N 33°24' W 118°21'1 1.8
2018-Apr-15 21:54N 33°24' W 118°22'0 0.1
2018-Apr-15 21:10N 33°24' W 118°22'7 2.4
2018-Apr-15 18:00N 33°17' W 118°18'0 0.2
2018-Apr-15 17:10N 33°17' W 118°19'0 0.0
2018-Apr-15 16:59N 33°17' W 118°19'16 8.4
2018-Apr-15 15:05N 33°28' W 118°04'110.7
2018-Apr-15 14:58N 33°28' W 118°03'710.5
2018-Apr-15 14:18N 33°33' W 117°56'310.3
2018-Apr-15 14:00N 33°35' W 117°54'1 0.1
2018-Apr-15 06:50N 33°35' W 117°53'410.9
2018-Apr-15 06:30N 33°37' W 117°57'1 2.1
2018-Apr-15 06:00N 33°37' W 117°58'0 0.1
2018-Apr-15 05:12N 33°37' W 117°58'0 0.0
2018-Apr-15 05:00N 33°37' W 117°58'0 0.0
2018-Apr-15 04:30N 33°37' W 117°58'0 0.0
2018-Apr-15 03:59N 33°37' W 117°58'0 0.3
2018-Apr-15 03:29N 33°37' W 117°58'5 2.5
2018-Apr-15 01:36N 33°34' W 117°53'110.5
2018-Apr-15 01:30N 33°34' W 117°54'511.0
2018-Apr-15 01:00N 33°32' W 118°00'510.6
2018-Apr-15 00:30N 33°29' W 118°06'  
Track history (hours):
 
Tides and Currents Weather Stations Pressure Air Temp Water Temp Dewpoint Dewpoint Depression Visibility Wind Speed Wind Dir Waves Ship Positions

Freelance

Owner: BROCKMAN, DONALD C, BALBOA, CA. More information available from US FCC via Universal Licensing System and Coast Guard Vessel Documentation Center.

Last reported at 2018-Apr-24 20:41 UTC. Time now 2018-Apr-24 21:11 UTC.
Position N 33°19' W 118°18'.

Length 25 m.

Type: Passenger vessel. MMSI: 366977380.

Date/timePositionNaut miles runAvg speedWind from/ knotsBaromVisibWave heightAir tempDewpointWater temp
2018-Apr-24 20:41N 33°19' W 118°18'0 2.4
2018-Apr-24 20:28N 33°19' W 118°18'1 1.3
2018-Apr-24 19:59N 33°19' W 118°18'1 0.9
2018-Apr-24 19:06N 33°20' W 118°19'210.9
2018-Apr-24 18:52N 33°22' W 118°21'27 5.6
2018-Apr-24 14:04N 33°35' W 117°53'0 2.0
2018-Apr-24 13:56N 33°36' W 117°53'1 0.1
2018-Apr-24 01:52N 33°36' W 117°54'0 0.1
2018-Apr-24 01:13N 33°36' W 117°54'1 5.4
2018-Apr-24 00:57N 33°35' W 117°53'510.8
2018-Apr-24 00:30N 33°32' W 117°58'710.6
2018-Apr-23 23:51N 33°29' W 118°05'12 0.5
2018-Apr-23 00:49N 33°35' W 117°53'411.1
2018-Apr-23 00:30N 33°34' W 117°57'510.8
2018-Apr-23 00:00N 33°33' W 118°03'610.9
2018-Apr-22 23:30N 33°31' W 118°10'910.5
2018-Apr-22 22:39N 33°27' W 118°19'210.4
2018-Apr-22 22:29N 33°27' W 118°21'3 6.5
2018-Apr-22 22:01N 33°25' W 118°25'0 0.1
2018-Apr-22 21:31N 33°25' W 118°24'3 4.6
2018-Apr-22 20:58N 33°24' W 118°22'2 2.3
2018-Apr-22 20:07N 33°22' W 118°21'4 3.7
2018-Apr-22 19:08N 33°19' W 118°18'0 0.5
2018-Apr-22 19:00N 33°20' W 118°18'2 3.7
2018-Apr-22 18:22N 33°17' W 118°18'0 0.2
2018-Apr-22 18:00N 33°17' W 118°18'0 0.0
2018-Apr-22 17:30N 33°17' W 118°18'0 0.1
2018-Apr-22 16:49N 33°17' W 118°18'2 6.5
2018-Apr-22 16:30N 33°19' W 118°17'510.2
2018-Apr-22 16:00N 33°22' W 118°12'610.7
2018-Apr-22 15:26N 33°26' W 118°07'910.5
2018-Apr-22 14:36N 33°31' W 117°58'210.8
2018-Apr-22 14:28N 33°32' W 117°57'510.1
2018-Apr-22 14:00N 33°35' W 117°53'1 0.2
2018-Apr-22 06:43N 33°36' W 117°54'1 5.9
2018-Apr-22 06:30N 33°35' W 117°53'0 0.0
2018-Apr-22 02:19N 33°35' W 117°53'1 3.7
2018-Apr-22 01:57N 33°36' W 117°54'0 0.1
2018-Apr-22 01:11N 33°36' W 117°54'1 5.4
2018-Apr-22 00:55N 33°35' W 117°53'410.5
2018-Apr-22 00:30N 33°32' W 117°57'510.7
2018-Apr-22 00:00N 33°29' W 118°02'510.6
2018-Apr-21 23:30N 33°26' W 118°07'710.3
2018-Apr-21 22:52N 33°22' W 118°13'5 9.0
2018-Apr-21 22:19N 33°19' W 118°18'5 1.1
2018-Apr-21 17:59N 33°18' W 118°24'0 0.2
2018-Apr-21 17:30N 33°18' W 118°24'0 0.4
2018-Apr-21 17:00N 33°18' W 118°24'30 9.9
2018-Apr-21 14:01N 33°34' W 117°54'110.8
2018-Apr-21 13:57N 33°34' W 117°54'4 0.4
2018-Apr-21 04:07N 33°37' W 117°58'0 0.1
2018-Apr-21 02:42N 33°37' W 117°58'2 9.4
2018-Apr-21 02:30N 33°36' W 117°56'2 3.7
2018-Apr-21 01:59N 33°36' W 117°54'0 0.1
2018-Apr-21 01:30N 33°36' W 117°54'0 0.0
2018-Apr-21 00:58N 33°36' W 117°54'1 2.5
2018-Apr-21 00:24N 33°35' W 117°53'411.2
2018-Apr-21 00:00N 33°33' W 117°58'611.1
2018-Apr-20 23:29N 33°31' W 118°04'10 0.2
2018-Apr-19 01:04N 33°35' W 117°53'111.1
2018-Apr-19 01:00N 33°35' W 117°54'510.8
2018-Apr-19 00:30N 33°33' W 117°60'1610.6
2018-Apr-18 23:00N 33°26' W 118°17'5 1.7
2018-Apr-18 19:50N 33°21' W 118°20'2 6.2
2018-Apr-18 19:30N 33°20' W 118°18'26 1.2
2018-Apr-17 22:13N 33°36' W 117°54'1 4.9
2018-Apr-17 21:57N 33°35' W 117°53'511.1
2018-Apr-17 21:28N 33°35' W 117°59'810.6
2018-Apr-17 20:44N 33°34' W 118°08'0 0.1
2018-Apr-17 20:30N 33°34' W 118°08'0 0.3
2018-Apr-17 19:57N 33°34' W 118°08'0 0.6
2018-Apr-17 19:30N 33°34' W 118°08'0 0.2
2018-Apr-17 18:55N 33°34' W 118°08'3 1.2
2018-Apr-17 16:47N 33°35' W 118°05'2 0.1
2018-Apr-16 19:40N 33°35' W 118°08'1 0.5
2018-Apr-16 18:01N 33°34' W 118°09'0 0.0
2018-Apr-16 18:00N 33°34' W 118°09'0 0.0
2018-Apr-16 17:00N 33°35' W 118°09'0 0.0
2018-Apr-16 16:27N 33°34' W 118°09'0 0.0
2018-Apr-16 15:41N 33°34' W 118°09'0 0.1
2018-Apr-16 15:17N 33°35' W 118°09'3 9.0
2018-Apr-16 14:59N 33°35' W 118°05'10 0.7
2018-Apr-16 00:48N 33°36' W 117°53'3 9.6
2018-Apr-16 00:30N 33°34' W 117°56'611.0
2018-Apr-16 00:00N 33°32' W 118°02'510.3
2018-Apr-15 23:30N 33°29' W 118°07'610.3
2018-Apr-15 22:57N 33°27' W 118°13'710.4
2018-Apr-15 22:16N 33°24' W 118°21'1 1.8
2018-Apr-15 21:54N 33°24' W 118°22'0 0.1
2018-Apr-15 21:10N 33°24' W 118°22'7 2.4
2018-Apr-15 18:00N 33°17' W 118°18'0 0.2
2018-Apr-15 17:10N 33°17' W 118°19'0 0.0
2018-Apr-15 16:59N 33°17' W 118°19'16 8.4
2018-Apr-15 15:05N 33°28' W 118°04'110.7
2018-Apr-15 14:58N 33°28' W 118°03'710.5
2018-Apr-15 14:18N 33°33' W 117°56'310.3
2018-Apr-15 14:00N 33°35' W 117°54'1 0.1
2018-Apr-15 06:50N 33°35' W 117°53'410.9
2018-Apr-15 06:30N 33°37' W 117°57'1 2.1
2018-Apr-15 06:00N 33°37' W 117°58'0 0.1
2018-Apr-15 05:12N 33°37' W 117°58'0 0.0
2018-Apr-15 05:00N 33°37' W 117°58'0 0.0
2018-Apr-15 04:30N 33°37' W 117°58'0 0.0
2018-Apr-15 03:59N 33°37' W 117°58'0 0.3
2018-Apr-15 03:29N 33°37' W 117°58'5 2.5
2018-Apr-15 01:36N 33°34' W 117°53'110.5
2018-Apr-15 01:30N 33°34' W 117°54'511.0
2018-Apr-15 01:00N 33°32' W 118°00'510.6
2018-Apr-15 00:30N 33°29' W 118°06'  

Dump ship's entire track history